sensor_id;sensor_type;location;lat;lon;timestamp;P1;durP1;ratioP1;P2;durP2;ratioP2
31872;SDS011;22407;42.820;23.374;2022-08-24T00:00:38;14.10;;;7.37;;
31872;SDS011;22407;42.820;23.374;2022-08-24T00:03:07;15.88;;;7.12;;
31872;SDS011;22407;42.820;23.374;2022-08-24T00:05:37;14.93;;;6.87;;
31872;SDS011;22407;42.820;23.374;2022-08-24T00:08:06;13.83;;;6.73;;
31872;SDS011;22407;42.820;23.374;2022-08-24T00:10:35;15.35;;;6.42;;
31872;SDS011;22407;42.820;23.374;2022-08-24T00:13:05;14.65;;;6.70;;
31872;SDS011;22407;42.820;23.374;2022-08-24T00:15:35;13.45;;;6.20;;
31872;SDS011;22407;42.820;23.374;2022-08-24T00:18:04;14.23;;;6.70;;
31872;SDS011;22407;42.820;23.374;2022-08-24T00:20:33;13.27;;;5.93;;
31872;SDS011;22407;42.820;23.374;2022-08-24T00:23:02;13.72;;;6.12;;
31872;SDS011;22407;42.820;23.374;2022-08-24T00:25:32;13.75;;;6.30;;
31872;SDS011;22407;42.820;23.374;2022-08-24T00:28:02;13.88;;;6.50;;
31872;SDS011;22407;42.820;23.374;2022-08-24T00:30:32;15.10;;;6.25;;
31872;SDS011;22407;42.820;23.374;2022-08-24T00:33:01;16.03;;;5.97;;
31872;SDS011;22407;42.820;23.374;2022-08-24T00:35:31;12.53;;;6.25;;
31872;SDS011;22407;42.820;23.374;2022-08-24T00:37:59;12.23;;;6.17;;
31872;SDS011;22407;42.820;23.374;2022-08-24T00:40:30;14.13;;;6.42;;
31872;SDS011;22407;42.820;23.374;2022-08-24T00:43:01;17.20;;;6.40;;
31872;SDS011;22407;42.820;23.374;2022-08-24T00:45:39;13.87;;;6.50;;
31872;SDS011;22407;42.820;23.374;2022-08-24T00:48:05;15.23;;;5.80;;
31872;SDS011;22407;42.820;23.374;2022-08-24T00:50:40;14.40;;;6.55;;
31872;SDS011;22407;42.820;23.374;2022-08-24T00:53:21;14.10;;;5.70;;
31872;SDS011;22407;42.820;23.374;2022-08-24T00:55:46;13.00;;;5.95;;
31872;SDS011;22407;42.820;23.374;2022-08-24T00:58:25;12.83;;;6.10;;
31872;SDS011;22407;42.820;23.374;2022-08-24T01:00:51;13.18;;;5.75;;
31872;SDS011;22407;42.820;23.374;2022-08-24T01:03:21;12.45;;;6.12;;
31872;SDS011;22407;42.820;23.374;2022-08-24T01:05:52;12.60;;;5.90;;
31872;SDS011;22407;42.820;23.374;2022-08-24T01:08:22;15.00;;;6.15;;
31872;SDS011;22407;42.820;23.374;2022-08-24T01:10:57;11.93;;;5.57;;
31872;SDS011;22407;42.820;23.374;2022-08-24T01:13:23;11.93;;;6.22;;
31872;SDS011;22407;42.820;23.374;2022-08-24T01:15:53;15.70;;;6.47;;
31872;SDS011;22407;42.820;23.374;2022-08-24T01:18:24;15.00;;;6.22;;
31872;SDS011;22407;42.820;23.374;2022-08-24T01:21:22;13.20;;;6.30;;
31872;SDS011;22407;42.820;23.374;2022-08-24T01:24:09;14.57;;;6.13;;
31872;SDS011;22407;42.820;23.374;2022-08-24T01:26:45;12.60;;;5.60;;
31872;SDS011;22407;42.820;23.374;2022-08-24T01:29:13;13.98;;;6.12;;
31872;SDS011;22407;42.820;23.374;2022-08-24T01:31:43;14.07;;;5.83;;
31872;SDS011;22407;42.820;23.374;2022-08-24T01:34:12;14.28;;;5.75;;
31872;SDS011;22407;42.820;23.374;2022-08-24T01:36:51;12.37;;;5.57;;
31872;SDS011;22407;42.820;23.374;2022-08-24T01:40:02;12.13;;;5.70;;
31872;SDS011;22407;42.820;23.374;2022-08-24T01:41:57;12.90;;;5.92;;
31872;SDS011;22407;42.820;23.374;2022-08-24T01:44:28;13.78;;;6.33;;
31872;SDS011;22407;42.820;23.374;2022-08-24T01:46:59;14.05;;;6.40;;
31872;SDS011;22407;42.820;23.374;2022-08-24T01:49:31;12.47;;;5.47;;
31872;SDS011;22407;42.820;23.374;2022-08-24T01:52:02;14.93;;;6.33;;
31872;SDS011;22407;42.820;23.374;2022-08-24T01:54:32;13.32;;;5.97;;
31872;SDS011;22407;42.820;23.374;2022-08-24T01:57:01;12.73;;;5.83;;
31872;SDS011;22407;42.820;23.374;2022-08-24T01:59:30;11.12;;;5.25;;
31872;SDS011;22407;42.820;23.374;2022-08-24T02:02:04;13.10;;;5.73;;
31872;SDS011;22407;42.820;23.374;2022-08-24T02:04:35;13.45;;;5.97;;
31872;SDS011;22407;42.820;23.374;2022-08-24T02:07:04;14.60;;;6.30;;
31872;SDS011;22407;42.820;23.374;2022-08-24T02:09:35;12.90;;;5.50;;
31872;SDS011;22407;42.820;23.374;2022-08-24T02:12:05;12.43;;;5.78;;
31872;SDS011;22407;42.820;23.374;2022-08-24T02:14:34;13.67;;;5.97;;
31872;SDS011;22407;42.820;23.374;2022-08-24T02:17:04;13.70;;;6.17;;
31872;SDS011;22407;42.820;23.374;2022-08-24T02:19:35;14.05;;;6.12;;
31872;SDS011;22407;42.820;23.374;2022-08-24T02:22:04;14.87;;;6.35;;
31872;SDS011;22407;42.820;23.374;2022-08-24T02:24:33;11.48;;;5.20;;
31872;SDS011;22407;42.820;23.374;2022-08-24T02:27:02;12.23;;;5.13;;
31872;SDS011;22407;42.820;23.374;2022-08-24T02:29:31;11.63;;;5.10;;
31872;SDS011;22407;42.820;23.374;2022-08-24T02:32:00;11.35;;;5.50;;
31872;SDS011;22407;42.820;23.374;2022-08-24T02:34:30;13.40;;;5.35;;
31872;SDS011;22407;42.820;23.374;2022-08-24T02:36:58;11.50;;;5.17;;
31872;SDS011;22407;42.820;23.374;2022-08-24T02:39:27;11.27;;;4.87;;
31872;SDS011;22407;42.820;23.374;2022-08-24T02:41:56;13.40;;;5.20;;
31872;SDS011;22407;42.820;23.374;2022-08-24T02:44:25;11.80;;;5.08;;
31872;SDS011;22407;42.820;23.374;2022-08-24T02:46:55;11.05;;;4.37;;
31872;SDS011;22407;42.820;23.374;2022-08-24T02:49:24;10.35;;;4.70;;
31872;SDS011;22407;42.820;23.374;2022-08-24T02:51:53;10.60;;;4.20;;
31872;SDS011;22407;42.820;23.374;2022-08-24T02:54:22;9.25;;;4.20;;
31872;SDS011;22407;42.820;23.374;2022-08-24T02:56:51;17.25;;;5.10;;
31872;SDS011;22407;42.820;23.374;2022-08-24T02:59:20;12.28;;;4.53;;
31872;SDS011;22407;42.820;23.374;2022-08-24T03:01:50;12.78;;;4.80;;
31872;SDS011;22407;42.820;23.374;2022-08-24T03:04:19;10.27;;;4.37;;
31872;SDS011;22407;42.820;23.374;2022-08-24T03:06:48;11.40;;;4.83;;
31872;SDS011;22407;42.820;23.374;2022-08-24T03:09:17;11.78;;;5.17;;
31872;SDS011;22407;42.820;23.374;2022-08-24T03:11:46;13.53;;;4.87;;
31872;SDS011;22407;42.820;23.374;2022-08-24T03:14:15;10.98;;;5.03;;
31872;SDS011;22407;42.820;23.374;2022-08-24T03:16:44;12.70;;;5.57;;
31872;SDS011;22407;42.820;23.374;2022-08-24T03:19:13;12.23;;;5.15;;
31872;SDS011;22407;42.820;23.374;2022-08-24T03:21:42;10.40;;;4.40;;
31872;SDS011;22407;42.820;23.374;2022-08-24T03:24:11;12.78;;;5.25;;
31872;SDS011;22407;42.820;23.374;2022-08-24T03:26:40;11.88;;;5.33;;
31872;SDS011;22407;42.820;23.374;2022-08-24T03:29:09;10.83;;;5.00;;
31872;SDS011;22407;42.820;23.374;2022-08-24T03:31:38;11.83;;;4.97;;
31872;SDS011;22407;42.820;23.374;2022-08-24T03:34:07;14.58;;;5.12;;
31872;SDS011;22407;42.820;23.374;2022-08-24T03:36:38;10.60;;;4.80;;
31872;SDS011;22407;42.820;23.374;2022-08-24T03:39:09;13.35;;;5.53;;
31872;SDS011;22407;42.820;23.374;2022-08-24T03:41:38;13.17;;;5.40;;
31872;SDS011;22407;42.820;23.374;2022-08-24T03:44:07;12.20;;;4.95;;
31872;SDS011;22407;42.820;23.374;2022-08-24T03:46:36;10.95;;;5.45;;
31872;SDS011;22407;42.820;23.374;2022-08-24T03:49:06;11.75;;;5.30;;
31872;SDS011;22407;42.820;23.374;2022-08-24T03:51:37;12.40;;;4.87;;
31872;SDS011;22407;42.820;23.374;2022-08-24T03:54:07;12.07;;;5.13;;
31872;SDS011;22407;42.820;23.374;2022-08-24T03:56:37;15.25;;;5.00;;
31872;SDS011;22407;42.820;23.374;2022-08-24T03:59:06;12.00;;;5.00;;
31872;SDS011;22407;42.820;23.374;2022-08-24T04:01:40;11.73;;;5.28;;
31872;SDS011;22407;42.820;23.374;2022-08-24T04:04:09;12.28;;;4.87;;
31872;SDS011;22407;42.820;23.374;2022-08-24T04:06:38;12.73;;;4.70;;
31872;SDS011;22407;42.820;23.374;2022-08-24T04:09:09;11.57;;;5.28;;
31872;SDS011;22407;42.820;23.374;2022-08-24T04:11:39;13.75;;;5.53;;
31872;SDS011;22407;42.820;23.374;2022-08-24T04:14:09;11.18;;;5.10;;
31872;SDS011;22407;42.820;23.374;2022-08-24T04:16:39;10.53;;;5.12;;
31872;SDS011;22407;42.820;23.374;2022-08-24T04:19:08;11.60;;;5.33;;
31872;SDS011;22407;42.820;23.374;2022-08-24T04:21:38;13.15;;;5.10;;
31872;SDS011;22407;42.820;23.374;2022-08-24T04:24:09;11.15;;;5.50;;
31872;SDS011;22407;42.820;23.374;2022-08-24T04:26:39;12.45;;;4.80;;
31872;SDS011;22407;42.820;23.374;2022-08-24T04:29:10;12.40;;;5.40;;
31872;SDS011;22407;42.820;23.374;2022-08-24T04:31:41;14.73;;;5.03;;
31872;SDS011;22407;42.820;23.374;2022-08-24T04:34:11;12.65;;;5.33;;
31872;SDS011;22407;42.820;23.374;2022-08-24T04:36:42;14.15;;;5.83;;
31872;SDS011;22407;42.820;23.374;2022-08-24T04:39:12;13.60;;;5.30;;
31872;SDS011;22407;42.820;23.374;2022-08-24T04:41:41;13.98;;;5.90;;
31872;SDS011;22407;42.820;23.374;2022-08-24T04:44:10;12.23;;;5.77;;
31872;SDS011;22407;42.820;23.374;2022-08-24T04:46:39;13.80;;;5.33;;
31872;SDS011;22407;42.820;23.374;2022-08-24T04:49:08;14.23;;;6.28;;
31872;SDS011;22407;42.820;23.374;2022-08-24T04:51:37;15.88;;;6.72;;
31872;SDS011;22407;42.820;23.374;2022-08-24T04:54:06;16.50;;;6.75;;
31872;SDS011;22407;42.820;23.374;2022-08-24T04:56:35;16.73;;;7.20;;
31872;SDS011;22407;42.820;23.374;2022-08-24T04:59:04;17.40;;;6.72;;
31872;SDS011;22407;42.820;23.374;2022-08-24T05:01:34;19.60;;;9.75;;
31872;SDS011;22407;42.820;23.374;2022-08-24T05:04:03;14.23;;;7.10;;
31872;SDS011;22407;42.820;23.374;2022-08-24T05:06:32;16.80;;;6.53;;
31872;SDS011;22407;42.820;23.374;2022-08-24T05:09:01;17.77;;;7.13;;
31872;SDS011;22407;42.820;23.374;2022-08-24T05:11:31;18.05;;;7.30;;
31872;SDS011;22407;42.820;23.374;2022-08-24T05:14:02;20.10;;;8.18;;
31872;SDS011;22407;42.820;23.374;2022-08-24T05:16:31;16.57;;;7.62;;
31872;SDS011;22407;42.820;23.374;2022-08-24T05:19:03;21.12;;;7.62;;
31872;SDS011;22407;42.820;23.374;2022-08-24T05:21:32;17.70;;;7.30;;
31872;SDS011;22407;42.820;23.374;2022-08-24T05:24:02;16.12;;;7.15;;
31872;SDS011;22407;42.820;23.374;2022-08-24T05:26:31;17.32;;;7.75;;
31872;SDS011;22407;42.820;23.374;2022-08-24T05:29:00;18.52;;;7.17;;
31872;SDS011;22407;42.820;23.374;2022-08-24T05:31:30;15.18;;;7.03;;
31872;SDS011;22407;42.820;23.374;2022-08-24T05:34:00;12.43;;;6.30;;
31872;SDS011;22407;42.820;23.374;2022-08-24T05:36:31;12.35;;;5.92;;
31872;SDS011;22407;42.820;23.374;2022-08-24T05:39:05;12.40;;;6.30;;
31872;SDS011;22407;42.820;23.374;2022-08-24T05:41:35;15.50;;;6.67;;
31872;SDS011;22407;42.820;23.374;2022-08-24T05:44:05;14.83;;;7.10;;
31872;SDS011;22407;42.820;23.374;2022-08-24T05:46:34;11.57;;;5.50;;
31872;SDS011;22407;42.820;23.374;2022-08-24T05:49:04;12.60;;;5.65;;
31872;SDS011;22407;42.820;23.374;2022-08-24T05:51:34;11.75;;;6.03;;
31872;SDS011;22407;42.820;23.374;2022-08-24T05:54:03;11.85;;;6.20;;
31872;SDS011;22407;42.820;23.374;2022-08-24T05:56:32;14.98;;;6.33;;
31872;SDS011;22407;42.820;23.374;2022-08-24T05:59:01;17.30;;;7.30;;
31872;SDS011;22407;42.820;23.374;2022-08-24T06:01:30;15.45;;;7.42;;
31872;SDS011;22407;42.820;23.374;2022-08-24T06:03:59;13.83;;;6.60;;
31872;SDS011;22407;42.820;23.374;2022-08-24T06:06:28;13.28;;;6.40;;
31872;SDS011;22407;42.820;23.374;2022-08-24T06:08:58;12.88;;;5.75;;
31872;SDS011;22407;42.820;23.374;2022-08-24T06:14:03;15.10;;;7.05;;
31872;SDS011;22407;42.820;23.374;2022-08-24T06:16:35;13.40;;;6.40;;
31872;SDS011;22407;42.820;23.374;2022-08-24T06:19:05;12.75;;;6.15;;
31872;SDS011;22407;42.820;23.374;2022-08-24T06:21:36;11.73;;;5.65;;
31872;SDS011;22407;42.820;23.374;2022-08-24T06:24:05;13.47;;;5.50;;
31872;SDS011;22407;42.820;23.374;2022-08-24T06:26:34;13.95;;;5.85;;
31872;SDS011;22407;42.820;23.374;2022-08-24T06:29:21;12.45;;;5.35;;
31872;SDS011;22407;42.820;23.374;2022-08-24T06:31:50;9.68;;;4.87;;
31872;SDS011;22407;42.820;23.374;2022-08-24T06:34:20;11.40;;;5.00;;
31872;SDS011;22407;42.820;23.374;2022-08-24T06:36:50;11.80;;;4.23;;
31872;SDS011;22407;42.820;23.374;2022-08-24T06:39:19;9.93;;;4.50;;
31872;SDS011;22407;42.820;23.374;2022-08-24T06:41:47;10.20;;;4.67;;
31872;SDS011;22407;42.820;23.374;2022-08-24T06:44:16;9.90;;;4.58;;
31872;SDS011;22407;42.820;23.374;2022-08-24T06:46:45;7.90;;;3.70;;
31872;SDS011;22407;42.820;23.374;2022-08-24T06:49:14;8.20;;;3.40;;
31872;SDS011;22407;42.820;23.374;2022-08-24T06:51:43;7.92;;;3.98;;
31872;SDS011;22407;42.820;23.374;2022-08-24T06:54:12;8.08;;;3.60;;
31872;SDS011;22407;42.820;23.374;2022-08-24T06:56:41;7.03;;;3.12;;
31872;SDS011;22407;42.820;23.374;2022-08-24T06:59:10;9.15;;;3.70;;
31872;SDS011;22407;42.820;23.374;2022-08-24T07:01:39;8.17;;;3.57;;
31872;SDS011;22407;42.820;23.374;2022-08-24T07:04:08;7.50;;;3.15;;
31872;SDS011;22407;42.820;23.374;2022-08-24T07:06:36;8.18;;;3.65;;
31872;SDS011;22407;42.820;23.374;2022-08-24T07:09:05;10.65;;;3.77;;
31872;SDS011;22407;42.820;23.374;2022-08-24T07:11:34;7.83;;;3.77;;
31872;SDS011;22407;42.820;23.374;2022-08-24T07:14:03;8.27;;;3.50;;
31872;SDS011;22407;42.820;23.374;2022-08-24T07:16:33;7.85;;;3.70;;
31872;SDS011;22407;42.820;23.374;2022-08-24T07:19:02;7.75;;;3.70;;
31872;SDS011;22407;42.820;23.374;2022-08-24T07:21:32;8.93;;;3.60;;
31872;SDS011;22407;42.820;23.374;2022-08-24T07:24:02;7.90;;;4.03;;
31872;SDS011;22407;42.820;23.374;2022-08-24T07:26:32;8.17;;;4.00;;
31872;SDS011;22407;42.820;23.374;2022-08-24T07:29:03;10.15;;;4.28;;
31872;SDS011;22407;42.820;23.374;2022-08-24T07:31:38;8.78;;;4.10;;
31872;SDS011;22407;42.820;23.374;2022-08-24T07:34:05;9.85;;;4.10;;
31872;SDS011;22407;42.820;23.374;2022-08-24T07:36:36;9.63;;;3.80;;
31872;SDS011;22407;42.820;23.374;2022-08-24T07:39:06;8.53;;;4.10;;
31872;SDS011;22407;42.820;23.374;2022-08-24T07:41:40;8.28;;;3.77;;
31872;SDS011;22407;42.820;23.374;2022-08-24T07:44:10;6.30;;;3.25;;
31872;SDS011;22407;42.820;23.374;2022-08-24T07:46:40;7.20;;;2.90;;
31872;SDS011;22407;42.820;23.374;2022-08-24T07:49:10;6.90;;;3.02;;
31872;SDS011;22407;42.820;23.374;2022-08-24T07:51:39;6.83;;;2.90;;
31872;SDS011;22407;42.820;23.374;2022-08-24T07:54:09;7.40;;;3.02;;
31872;SDS011;22407;42.820;23.374;2022-08-24T07:56:39;7.12;;;2.80;;
31872;SDS011;22407;42.820;23.374;2022-08-24T07:59:08;6.50;;;2.90;;
31872;SDS011;22407;42.820;23.374;2022-08-24T08:01:38;11.57;;;3.12;;
31872;SDS011;22407;42.820;23.374;2022-08-24T08:04:08;7.93;;;3.13;;
31872;SDS011;22407;42.820;23.374;2022-08-24T08:06:37;6.92;;;2.80;;
31872;SDS011;22407;42.820;23.374;2022-08-24T08:09:05;8.03;;;3.12;;
31872;SDS011;22407;42.820;23.374;2022-08-24T08:11:34;6.65;;;2.85;;
31872;SDS011;22407;42.820;23.374;2022-08-24T08:14:03;7.00;;;2.92;;
31872;SDS011;22407;42.820;23.374;2022-08-24T08:16:32;7.00;;;2.77;;
31872;SDS011;22407;42.820;23.374;2022-08-24T08:19:01;7.58;;;3.27;;
31872;SDS011;22407;42.820;23.374;2022-08-24T08:21:30;8.18;;;3.40;;
31872;SDS011;22407;42.820;23.374;2022-08-24T08:24:17;7.75;;;3.10;;
31872;SDS011;22407;42.820;23.374;2022-08-24T08:26:47;6.90;;;3.05;;
31872;SDS011;22407;42.820;23.374;2022-08-24T08:29:17;7.00;;;3.00;;
31872;SDS011;22407;42.820;23.374;2022-08-24T08:31:47;6.58;;;3.22;;
31872;SDS011;22407;42.820;23.374;2022-08-24T08:34:16;6.92;;;3.67;;
31872;SDS011;22407;42.820;23.374;2022-08-24T08:36:45;8.28;;;3.10;;
31872;SDS011;22407;42.820;23.374;2022-08-24T08:39:15;7.58;;;3.00;;
31872;SDS011;22407;42.820;23.374;2022-08-24T08:47:38;7.42;;;3.45;;
31872;SDS011;22407;42.820;23.374;2022-08-24T08:53:26;6.87;;;2.83;;
31872;SDS011;22407;42.820;23.374;2022-08-24T08:56:29;7.30;;;3.30;;
31872;SDS011;22407;42.820;23.374;2022-08-24T08:58:36;6.92;;;3.20;;
31872;SDS011;22407;42.820;23.374;2022-08-24T09:09:44;8.17;;;3.23;;
31872;SDS011;22407;42.820;23.374;2022-08-24T09:12:16;9.83;;;3.92;;
31872;SDS011;22407;42.820;23.374;2022-08-24T09:14:55;7.47;;;3.47;;
31872;SDS011;22407;42.820;23.374;2022-08-24T09:20:30;9.25;;;2.98;;
31872;SDS011;22407;42.820;23.374;2022-08-24T09:25:44;10.15;;;3.20;;
31872;SDS011;22407;42.820;23.374;2022-08-24T09:36:51;8.30;;;3.13;;
31872;SDS011;22407;42.820;23.374;2022-08-24T09:50:36;6.77;;;2.90;;
31872;SDS011;22407;42.820;23.374;2022-08-24T09:55:43;8.98;;;3.37;;
31872;SDS011;22407;42.820;23.374;2022-08-24T10:04:09;9.40;;;3.37;;
31872;SDS011;22407;42.820;23.374;2022-08-24T10:12:21;11.93;;;3.37;;
31872;SDS011;22407;42.820;23.374;2022-08-24T10:20:24;10.32;;;3.50;;
31872;SDS011;22407;42.820;23.374;2022-08-24T10:26:08;8.18;;;3.35;;
31872;SDS011;22407;42.820;23.374;2022-08-24T10:37:03;8.83;;;3.40;;
31872;SDS011;22407;42.820;23.374;2022-08-24T10:39:36;9.90;;;3.58;;
31872;SDS011;22407;42.820;23.374;2022-08-24T10:53:46;11.93;;;4.58;;
31872;SDS011;22407;42.820;23.374;2022-08-24T10:56:26;10.50;;;3.80;;
31872;SDS011;22407;42.820;23.374;2022-08-24T10:59:03;9.87;;;3.83;;
31872;SDS011;22407;42.820;23.374;2022-08-24T11:01:34;10.20;;;3.90;;
31872;SDS011;22407;42.820;23.374;2022-08-24T11:04:08;11.43;;;4.42;;
31872;SDS011;22407;42.820;23.374;2022-08-24T11:06:43;10.15;;;4.30;;
31872;SDS011;22407;42.820;23.374;2022-08-24T11:09:15;9.80;;;4.67;;
31872;SDS011;22407;42.820;23.374;2022-08-24T11:11:45;10.73;;;4.30;;
31872;SDS011;22407;42.820;23.374;2022-08-24T11:14:26;9.10;;;4.53;;
31872;SDS011;22407;42.820;23.374;2022-08-24T11:17:17;11.05;;;4.83;;
31872;SDS011;22407;42.820;23.374;2022-08-24T11:19:49;12.10;;;4.45;;
31872;SDS011;22407;42.820;23.374;2022-08-24T11:22:32;10.40;;;4.40;;
31872;SDS011;22407;42.820;23.374;2022-08-24T11:25:08;8.07;;;4.23;;
31872;SDS011;22407;42.820;23.374;2022-08-24T11:27:45;7.80;;;4.22;;
31872;SDS011;22407;42.820;23.374;2022-08-24T11:32:55;8.10;;;4.17;;
31872;SDS011;22407;42.820;23.374;2022-08-24T11:38:26;10.13;;;4.10;;
31872;SDS011;22407;42.820;23.374;2022-08-24T11:41:03;9.45;;;4.45;;
31872;SDS011;22407;42.820;23.374;2022-08-24T11:49:01;9.38;;;4.60;;
31872;SDS011;22407;42.820;23.374;2022-08-24T11:54:15;9.28;;;4.45;;
31872;SDS011;22407;42.820;23.374;2022-08-24T11:56:47;10.80;;;4.60;;
31872;SDS011;22407;42.820;23.374;2022-08-24T12:05:05;11.77;;;5.17;;
31872;SDS011;22407;42.820;23.374;2022-08-24T12:15:53;12.05;;;5.08;;
31872;SDS011;22407;42.820;23.374;2022-08-24T12:18:37;10.63;;;5.07;;
31872;SDS011;22407;42.820;23.374;2022-08-24T12:21:03;13.58;;;5.20;;
31872;SDS011;22407;42.820;23.374;2022-08-24T12:23:39;10.38;;;4.70;;
31872;SDS011;22407;42.820;23.374;2022-08-24T12:26:15;11.33;;;5.20;;
31872;SDS011;22407;42.820;23.374;2022-08-24T12:29:05;14.93;;;4.90;;
31872;SDS011;22407;42.820;23.374;2022-08-24T12:31:57;11.30;;;4.77;;
31872;SDS011;22407;42.820;23.374;2022-08-24T12:34:20;13.20;;;4.90;;
31872;SDS011;22407;42.820;23.374;2022-08-24T12:37:08;10.65;;;4.53;;
31872;SDS011;22407;42.820;23.374;2022-08-24T12:39:38;9.40;;;4.47;;
31872;SDS011;22407;42.820;23.374;2022-08-24T12:42:32;15.03;;;4.85;;
31872;SDS011;22407;42.820;23.374;2022-08-24T12:45:08;13.93;;;4.93;;
31872;SDS011;22407;42.820;23.374;2022-08-24T12:47:45;12.15;;;4.22;;
31872;SDS011;22407;42.820;23.374;2022-08-24T12:56:00;8.80;;;4.30;;
31872;SDS011;22407;42.820;23.374;2022-08-24T13:01:14;9.90;;;4.20;;
31872;SDS011;22407;42.820;23.374;2022-08-24T13:03:46;12.65;;;4.40;;
31872;SDS011;22407;42.820;23.374;2022-08-24T13:06:19;9.85;;;4.12;;
31872;SDS011;22407;42.820;23.374;2022-08-24T13:09:05;10.08;;;4.05;;
31872;SDS011;22407;42.820;23.374;2022-08-24T13:11:34;10.13;;;3.87;;
31872;SDS011;22407;42.820;23.374;2022-08-24T13:14:23;11.70;;;4.17;;
31872;SDS011;22407;42.820;23.374;2022-08-24T13:24:45;11.97;;;4.40;;
31872;SDS011;22407;42.820;23.374;2022-08-24T13:40:58;14.78;;;4.45;;
31872;SDS011;22407;42.820;23.374;2022-08-24T13:43:38;13.55;;;5.33;;
31872;SDS011;22407;42.820;23.374;2022-08-24T13:46:19;10.28;;;4.80;;
31872;SDS011;22407;42.820;23.374;2022-08-24T13:51:32;13.23;;;5.27;;
31872;SDS011;22407;42.820;23.374;2022-08-24T13:54:22;12.33;;;4.87;;
31872;SDS011;22407;42.820;23.374;2022-08-24T13:57:08;13.50;;;4.97;;
31872;SDS011;22407;42.820;23.374;2022-08-24T14:00:12;11.63;;;4.80;;
31872;SDS011;22407;42.820;23.374;2022-08-24T14:05:22;9.67;;;4.50;;
31872;SDS011;22407;42.820;23.374;2022-08-24T14:11:46;12.20;;;4.95;;
31872;SDS011;22407;42.820;23.374;2022-08-24T14:19:58;12.90;;;4.53;;
31872;SDS011;22407;42.820;23.374;2022-08-24T14:23:09;13.40;;;4.58;;
31872;SDS011;22407;42.820;23.374;2022-08-24T14:25:25;13.83;;;4.58;;
31872;SDS011;22407;42.820;23.374;2022-08-24T14:33:04;12.00;;;4.77;;
31872;SDS011;22407;42.820;23.374;2022-08-24T14:35:55;15.75;;;4.60;;
31872;SDS011;22407;42.820;23.374;2022-08-24T14:43:48;13.22;;;4.55;;
31872;SDS011;22407;42.820;23.374;2022-08-24T14:46:18;14.73;;;5.07;;
31872;SDS011;22407;42.820;23.374;2022-08-24T15:00:02;14.13;;;4.93;;
31872;SDS011;22407;42.820;23.374;2022-08-24T15:06:10;15.65;;;4.55;;
31872;SDS011;22407;42.820;23.374;2022-08-24T15:08:30;17.60;;;5.17;;
31872;SDS011;22407;42.820;23.374;2022-08-24T15:11:06;17.80;;;5.15;;
31872;SDS011;22407;42.820;23.374;2022-08-24T15:14:00;20.77;;;5.17;;
31872;SDS011;22407;42.820;23.374;2022-08-24T15:16:22;18.70;;;5.83;;
31872;SDS011;22407;42.820;23.374;2022-08-24T15:22:04;15.95;;;5.22;;
31872;SDS011;22407;42.820;23.374;2022-08-24T15:24:39;20.57;;;5.50;;
31872;SDS011;22407;42.820;23.374;2022-08-24T15:27:33;16.77;;;5.53;;
31872;SDS011;22407;42.820;23.374;2022-08-24T15:30:00;22.10;;;5.67;;
31872;SDS011;22407;42.820;23.374;2022-08-24T15:32:41;19.90;;;5.12;;
31872;SDS011;22407;42.820;23.374;2022-08-24T15:35:21;14.83;;;5.03;;
31872;SDS011;22407;42.820;23.374;2022-08-24T15:37:50;18.48;;;5.40;;
31872;SDS011;22407;42.820;23.374;2022-08-24T15:40:26;20.43;;;5.60;;
31872;SDS011;22407;42.820;23.374;2022-08-24T15:42:59;16.95;;;5.15;;
31872;SDS011;22407;42.820;23.374;2022-08-24T15:45:30;21.75;;;5.50;;
31872;SDS011;22407;42.820;23.374;2022-08-24T15:48:00;19.25;;;5.12;;
31872;SDS011;22407;42.820;23.374;2022-08-24T15:50:40;18.65;;;5.28;;
31872;SDS011;22407;42.820;23.374;2022-08-24T15:53:47;22.80;;;4.77;;
31872;SDS011;22407;42.820;23.374;2022-08-24T15:55:56;21.33;;;4.80;;
31872;SDS011;22407;42.820;23.374;2022-08-24T15:58:33;24.37;;;4.92;;
31872;SDS011;22407;42.820;23.374;2022-08-24T16:04:00;25.08;;;6.33;;
31872;SDS011;22407;42.820;23.374;2022-08-24T16:09:11;19.32;;;5.08;;
31872;SDS011;22407;42.820;23.374;2022-08-24T16:11:45;19.17;;;5.83;;
31872;SDS011;22407;42.820;23.374;2022-08-24T16:14:28;22.65;;;5.72;;
31872;SDS011;22407;42.820;23.374;2022-08-24T16:17:18;20.88;;;5.53;;
31872;SDS011;22407;42.820;23.374;2022-08-24T16:19:58;26.43;;;6.33;;
31872;SDS011;22407;42.820;23.374;2022-08-24T16:22:30;23.27;;;5.40;;
31872;SDS011;22407;42.820;23.374;2022-08-24T16:25:08;22.52;;;5.67;;
31872;SDS011;22407;42.820;23.374;2022-08-24T16:27:56;19.05;;;5.40;;
31872;SDS011;22407;42.820;23.374;2022-08-24T16:30:27;22.82;;;5.47;;
31872;SDS011;22407;42.820;23.374;2022-08-24T16:33:05;20.33;;;5.33;;
31872;SDS011;22407;42.820;23.374;2022-08-24T16:35:36;23.62;;;4.95;;
31872;SDS011;22407;42.820;23.374;2022-08-24T16:38:05;22.60;;;5.97;;
31872;SDS011;22407;42.820;23.374;2022-08-24T16:40:33;21.17;;;5.08;;
31872;SDS011;22407;42.820;23.374;2022-08-24T16:43:03;23.70;;;5.30;;
31872;SDS011;22407;42.820;23.374;2022-08-24T16:45:32;22.83;;;5.73;;
31872;SDS011;22407;42.820;23.374;2022-08-24T16:48:02;22.80;;;5.28;;
31872;SDS011;22407;42.820;23.374;2022-08-24T16:50:31;20.50;;;5.00;;
31872;SDS011;22407;42.820;23.374;2022-08-24T16:52:59;24.47;;;5.95;;
31872;SDS011;22407;42.820;23.374;2022-08-24T16:55:28;28.35;;;6.10;;
31872;SDS011;22407;42.820;23.374;2022-08-24T16:57:58;18.00;;;6.23;;
31872;SDS011;22407;42.820;23.374;2022-08-24T17:00:27;21.07;;;5.55;;
31872;SDS011;22407;42.820;23.374;2022-08-24T17:02:56;22.45;;;6.30;;
31872;SDS011;22407;42.820;23.374;2022-08-24T17:05:26;21.68;;;5.83;;
31872;SDS011;22407;42.820;23.374;2022-08-24T17:07:56;20.35;;;6.00;;
31872;SDS011;22407;42.820;23.374;2022-08-24T17:10:26;22.97;;;5.07;;
31872;SDS011;22407;42.820;23.374;2022-08-24T17:12:56;22.05;;;5.25;;
31872;SDS011;22407;42.820;23.374;2022-08-24T17:15:25;15.13;;;5.10;;
31872;SDS011;22407;42.820;23.374;2022-08-24T17:17:55;21.07;;;4.87;;
31872;SDS011;22407;42.820;23.374;2022-08-24T17:20:27;21.97;;;5.47;;
31872;SDS011;22407;42.820;23.374;2022-08-24T17:22:56;22.23;;;5.07;;
31872;SDS011;22407;42.820;23.374;2022-08-24T17:25:26;19.62;;;5.03;;
31872;SDS011;22407;42.820;23.374;2022-08-24T17:27:59;21.27;;;6.37;;
31872;SDS011;22407;42.820;23.374;2022-08-24T17:30:27;18.70;;;5.08;;
31872;SDS011;22407;42.820;23.374;2022-08-24T17:32:56;19.90;;;5.33;;
31872;SDS011;22407;42.820;23.374;2022-08-24T17:35:26;19.53;;;5.27;;
31872;SDS011;22407;42.820;23.374;2022-08-24T17:37:55;23.70;;;5.47;;
31872;SDS011;22407;42.820;23.374;2022-08-24T17:40:25;25.23;;;5.80;;
31872;SDS011;22407;42.820;23.374;2022-08-24T17:42:57;17.73;;;5.58;;
31872;SDS011;22407;42.820;23.374;2022-08-24T17:45:26;26.77;;;6.08;;
31872;SDS011;22407;42.820;23.374;2022-08-24T17:47:55;16.37;;;5.40;;
31872;SDS011;22407;42.820;23.374;2022-08-24T17:50:24;18.73;;;5.40;;
31872;SDS011;22407;42.820;23.374;2022-08-24T17:52:54;20.15;;;6.33;;
31872;SDS011;22407;42.820;23.374;2022-08-24T17:55:23;18.80;;;5.33;;
31872;SDS011;22407;42.820;23.374;2022-08-24T17:57:52;23.40;;;6.20;;
31872;SDS011;22407;42.820;23.374;2022-08-24T18:00:20;21.93;;;5.37;;
31872;SDS011;22407;42.820;23.374;2022-08-24T18:02:49;20.62;;;5.60;;
31872;SDS011;22407;42.820;23.374;2022-08-24T18:05:18;26.87;;;6.45;;